createdAt,value
2023-05-10T00:01:46.449Z,100985.19
2023-05-10T00:04:15.503Z,100977.22
2023-05-10T00:06:42.057Z,100966.94
2023-05-10T00:09:11.064Z,100976.44
2023-05-10T00:11:39.935Z,100970.09
2023-05-10T00:14:08.761Z,100967.31
2023-05-10T00:16:37.967Z,100967.94
2023-05-10T00:19:04.474Z,100960.59
2023-05-10T00:21:31.028Z,100966.53
2023-05-10T00:24:05.010Z,100965.38
2023-05-10T00:26:34.092Z,100965.97
2023-05-10T00:29:02.963Z,100966.75
2023-05-10T00:31:31.960Z,100969.34
2023-05-10T00:34:03.229Z,100960.22
2023-05-10T00:36:29.765Z,100949.47
2023-05-10T00:38:58.498Z,100963.16
2023-05-10T00:41:24.935Z,100962.78
2023-05-10T00:43:56.354Z,100957.63
2023-05-10T00:46:23.145Z,100961.59
2023-05-10T00:48:51.253Z,100964.97
2023-05-10T00:51:17.999Z,100960.44
2023-05-10T00:53:46.597Z,100958.84
2023-05-10T00:56:13.982Z,100961.44
2023-05-10T00:58:43.377Z,100961.44
2023-05-10T01:01:10.825Z,100957.66
2023-05-10T01:03:40.765Z,100961.84
2023-05-10T01:06:11.028Z,100961.84
2023-05-10T01:08:37.969Z,100966.97
2023-05-10T01:11:06.832Z,100962.63
2023-05-10T01:13:39.111Z,100968.41
2023-05-10T01:16:07.444Z,100967.41
2023-05-10T01:18:41.311Z,100967.59
2023-05-10T01:21:35.179Z,100966.63
2023-05-10T01:24:35.567Z,100957.69
2023-05-10T01:27:40.774Z,100964.44
2023-05-10T01:30:16.491Z,100974.75
2023-05-10T01:32:55.236Z,100972.00
2023-05-10T01:35:40.538Z,100961.69
2023-05-10T01:38:19.425Z,100959.91
2023-05-10T01:40:58.106Z,100970.00
2023-05-10T01:43:32.252Z,100959.69
2023-05-10T01:46:12.000Z,100965.84
2023-05-10T01:48:47.944Z,100973.16
2023-05-10T01:51:22.797Z,100967.00
2023-05-10T01:53:51.208Z,100964.63
2023-05-10T01:56:23.584Z,100968.78
2023-05-10T01:58:54.640Z,100973.94
2023-05-10T02:01:25.637Z,100974.75
2023-05-10T02:03:53.013Z,100973.94
2023-05-10T02:06:25.410Z,100970.59
2023-05-10T02:08:56.788Z,100971.38
2023-05-10T02:11:26.468Z,100974.75
2023-05-10T02:13:56.098Z,100977.94
2023-05-10T02:16:27.414Z,100976.34
2023-05-10T02:18:55.721Z,100980.53
2023-05-10T02:21:25.876Z,100978.13
2023-05-10T02:23:56.152Z,100979.09
2023-05-10T02:26:27.237Z,100975.16
2023-05-10T02:28:58.175Z,100979.50
2023-05-10T02:31:29.392Z,100979.50
2023-05-10T02:33:57.889Z,100983.88
2023-05-10T02:36:25.706Z,100983.88
2023-05-10T02:38:53.755Z,100989.97
2023-05-10T02:41:22.287Z,100988.03
2023-05-10T02:43:55.948Z,100994.19
2023-05-10T02:46:22.599Z,100997.91
2023-05-10T02:48:49.154Z,100997.31
2023-05-10T02:51:18.972Z,101002.69
2023-05-10T02:53:50.255Z,100996.91
2023-05-10T02:56:32.741Z,100989.34
2023-05-10T02:59:01.940Z,100994.72
2023-05-10T03:01:31.202Z,100995.66
2023-05-10T03:04:00.171Z,100998.09
2023-05-10T03:06:26.757Z,100998.44
2023-05-10T03:08:55.521Z,101007.38
2023-05-10T03:11:33.180Z,100999.81
2023-05-10T03:14:22.278Z,101004.78
2023-05-10T03:16:57.819Z,101008.72
2023-05-10T03:19:51.872Z,101003.34
2023-05-10T03:22:25.801Z,101010.81
2023-05-10T03:24:58.019Z,101010.41
2023-05-10T03:27:28.712Z,101008.41
2023-05-10T03:30:01.479Z,101017.47
2023-05-10T03:32:30.392Z,101020.41
2023-05-10T03:34:56.982Z,101023.19
2023-05-10T03:37:23.459Z,101019.19
2023-05-10T03:39:52.280Z,101028.53
2023-05-10T03:42:18.933Z,101021.75
2023-05-10T03:44:50.148Z,101016.22
2023-05-10T03:47:16.670Z,101020.38
2023-05-10T03:49:45.419Z,101021.34
2023-05-10T03:52:11.931Z,101024.13
2023-05-10T03:54:38.569Z,101015.56
2023-05-10T03:57:05.544Z,101015.56
2023-05-10T03:59:32.084Z,101019.16
2023-05-10T04:02:03.836Z,101017.56
2023-05-10T04:04:30.519Z,101024.50
2023-05-10T04:06:57.044Z,101020.13
2023-05-10T04:09:23.528Z,101021.34
2023-05-10T04:11:50.015Z,101023.75
2023-05-10T04:14:19.006Z,101020.56
2023-05-10T04:16:47.816Z,101031.66
2023-05-10T04:19:16.642Z,101025.53
2023-05-10T04:21:45.502Z,101034.84
2023-05-10T04:24:13.384Z,101031.47
2023-05-10T04:26:40.071Z,101033.84
2023-05-10T04:29:06.564Z,101035.28
2023-05-10T04:31:37.371Z,101026.56
2023-05-10T04:34:06.454Z,101029.72
2023-05-10T04:36:36.774Z,101029.56
2023-05-10T04:39:05.816Z,101032.16
2023-05-10T04:41:34.710Z,101031.34
2023-05-10T04:44:01.199Z,101036.31
2023-05-10T04:46:29.760Z,101038.69
2023-05-10T04:48:56.232Z,101041.25
2023-05-10T04:51:22.690Z,101048.19
2023-05-10T04:54:04.690Z,101047.41
2023-05-10T04:56:32.806Z,101046.22
2023-05-10T04:59:01.369Z,101053.78
2023-05-10T05:01:32.905Z,101049.22
2023-05-10T05:04:00.293Z,101057.56
2023-05-10T05:06:28.198Z,101060.78
2023-05-10T05:08:56.966Z,101058.00
2023-05-10T05:11:28.312Z,101062.16
2023-05-10T05:13:54.848Z,101058.59
2023-05-10T05:16:21.381Z,101063.59
2023-05-10T05:18:50.012Z,101064.19
2023-05-10T05:21:20.514Z,101059.81
2023-05-10T05:23:49.531Z,101069.78
2023-05-10T05:26:16.137Z,101073.75
2023-05-10T05:28:44.968Z,101071.16
2023-05-10T05:31:14.896Z,101079.09
2023-05-10T05:33:41.530Z,101078.09
2023-05-10T05:36:08.171Z,101074.72
2023-05-10T05:38:36.843Z,101084.44
2023-05-10T05:41:04.014Z,101079.09
2023-05-10T05:43:32.634Z,101076.94
2023-05-10T05:46:01.949Z,101082.91
2023-05-10T05:48:31.446Z,101075.97
2023-05-10T05:50:58.269Z,101078.72
2023-05-10T05:53:27.798Z,101082.69
2023-05-10T05:55:55.068Z,101092.41
2023-05-10T05:58:24.275Z,101092.41
2023-05-10T06:00:52.055Z,101088.66
2023-05-10T06:03:19.280Z,101093.59
2023-05-10T06:05:48.165Z,101098.34
2023-05-10T06:08:14.801Z,101097.13
2023-05-10T06:10:41.280Z,101100.06
2023-05-10T06:13:10.262Z,101107.78
2023-05-10T06:15:36.839Z,101104.41
2023-05-10T06:18:03.513Z,101116.72
2023-05-10T06:20:30.097Z,101111.75
2023-05-10T06:23:00.825Z,101117.84
2023-05-10T06:25:27.378Z,101116.09
2023-05-10T06:27:58.259Z,101111.56
2023-05-10T06:30:30.376Z,101120.69
2023-05-10T06:32:57.532Z,101117.94
2023-05-10T06:35:24.230Z,101114.69
2023-05-10T06:37:53.218Z,101113.63
2023-05-10T06:40:20.204Z,101121.06
2023-05-10T06:42:47.648Z,101119.34
2023-05-10T06:45:16.062Z,101118.19
2023-05-10T06:47:45.651Z,101131.41
2023-05-10T06:50:14.540Z,101134.97
2023-05-10T06:52:44.220Z,101125.91
2023-05-10T06:55:13.451Z,101129.09
2023-05-10T06:57:39.960Z,101134.44
2023-05-10T07:00:10.596Z,101133.88
2023-05-10T07:02:37.246Z,101139.03
2023-05-10T07:05:03.966Z,101138.28
2023-05-10T07:07:30.797Z,101145.28
2023-05-10T07:10:01.941Z,101146.91
2023-05-10T07:12:28.657Z,101147.53
2023-05-10T07:14:55.176Z,101158.69
2023-05-10T07:17:21.801Z,101158.25
2023-05-10T07:19:48.321Z,101154.09
2023-05-10T07:22:20.307Z,101153.72
2023-05-10T07:24:47.235Z,101157.88
2023-05-10T07:27:14.091Z,101161.22
2023-05-10T07:29:43.194Z,101160.44
2023-05-10T07:32:09.974Z,101166.97
2023-05-10T07:34:36.579Z,101165.81
2023-05-10T07:37:03.194Z,101178.13
2023-05-10T07:39:34.483Z,101176.19
2023-05-10T07:42:03.965Z,101176.19
2023-05-10T07:44:33.023Z,101172.94
2023-05-10T07:47:01.735Z,101179.44
2023-05-10T07:49:28.250Z,101182.16
2023-05-10T07:51:54.781Z,101183.50
2023-05-10T07:54:23.686Z,101185.28
2023-05-10T07:56:52.610Z,101189.16
2023-05-10T07:59:19.195Z,101199.16
2023-05-10T08:01:46.109Z,101193.03
2023-05-10T08:04:12.923Z,101198.13
2023-05-10T08:06:40.485Z,101202.09
2023-05-10T08:09:09.682Z,101206.53
2023-05-10T08:11:41.079Z,101209.94
2023-05-10T08:14:07.607Z,101214.16
2023-05-10T08:16:34.191Z,101213.38
2023-05-10T08:19:03.384Z,101212.81
2023-05-10T08:21:30.183Z,101206.34
2023-05-10T08:23:56.742Z,101203.75
2023-05-10T08:26:25.812Z,101200.59
2023-05-10T08:28:54.462Z,101205.97
2023-05-10T08:31:20.973Z,101209.34
2023-05-10T08:33:52.630Z,101216.47
2023-05-10T08:36:22.713Z,101220.63
2023-05-10T08:38:54.337Z,101227.41
2023-05-10T08:41:25.555Z,101226.78
2023-05-10T08:43:53.010Z,101230.50
2023-05-10T08:46:24.392Z,101231.19
2023-05-10T08:48:55.253Z,101233.91
2023-05-10T08:51:28.237Z,101241.66
2023-05-10T08:53:57.495Z,101236.66
2023-05-10T08:56:25.075Z,101240.97
2023-05-10T08:58:54.446Z,101243.00
2023-05-10T09:01:22.420Z,101246.81
2023-05-10T09:03:49.616Z,101243.91
2023-05-10T09:06:18.813Z,101250.59
2023-05-10T09:08:49.021Z,101254.72
2023-05-10T09:11:18.281Z,101252.72
2023-05-10T09:13:45.589Z,101243.00
2023-05-10T09:16:21.005Z,101246.84
2023-05-10T09:18:50.413Z,101255.19
2023-05-10T09:21:18.603Z,101253.56
2023-05-10T09:23:48.657Z,101254.91
2023-05-10T09:26:18.478Z,101271.31
2023-05-10T09:28:59.351Z,101257.81
2023-05-10T09:31:43.696Z,101257.78
2023-05-10T09:34:12.604Z,101278.03
2023-05-10T09:36:51.934Z,101269.25
2023-05-10T09:39:19.165Z,101274.09
2023-05-10T09:41:47.965Z,101280.97
2023-05-10T09:44:20.607Z,101278.38
2023-05-10T09:46:53.669Z,101279.59
2023-05-10T09:49:21.921Z,101283.78
2023-05-10T09:51:48.664Z,101287.31
2023-05-10T09:54:22.028Z,101283.09
2023-05-10T09:56:48.460Z,101283.44
2023-05-10T09:59:18.032Z,101292.03
2023-05-10T10:01:50.903Z,101293.47
2023-05-10T10:04:18.119Z,101290.03
2023-05-10T10:06:44.922Z,101293.84
2023-05-10T10:09:11.694Z,101293.06
2023-05-10T10:11:42.337Z,101294.91
2023-05-10T10:14:12.443Z,101298.31
2023-05-10T10:16:51.633Z,101300.50
2023-05-10T10:19:30.243Z,101303.69
2023-05-10T10:21:56.844Z,101301.91
2023-05-10T10:24:23.434Z,101303.47
2023-05-10T10:26:55.654Z,101299.31
2023-05-10T10:29:37.089Z,101300.69
2023-05-10T10:32:27.911Z,101306.06
2023-05-10T10:34:55.892Z,101305.66
2023-05-10T10:37:22.563Z,101308.06
2023-05-10T10:39:50.718Z,101310.84
2023-05-10T10:42:47.200Z,101314.84
2023-05-10T10:45:14.631Z,101307.06
2023-05-10T10:47:41.481Z,101317.41
2023-05-10T10:50:13.818Z,101308.06
2023-05-10T10:52:46.581Z,101315.44
2023-05-10T10:55:19.939Z,101317.03
2023-05-10T10:58:01.682Z,101314.63
2023-05-10T11:00:35.841Z,101305.88
2023-05-10T11:03:19.772Z,101310.25
2023-05-10T11:05:52.065Z,101308.69
2023-05-10T11:08:33.392Z,101316.22
2023-05-10T11:11:00.487Z,101317.63
2023-05-10T11:13:47.233Z,101313.03
2023-05-10T11:16:26.344Z,101320.59
2023-05-10T11:19:02.452Z,101319.78
2023-05-10T11:21:34.781Z,101323.94
2023-05-10T11:24:07.205Z,101317.75
2023-05-10T11:26:36.475Z,101320.38
2023-05-10T11:29:06.041Z,101324.13
2023-05-10T11:31:34.945Z,101322.56
2023-05-10T11:34:05.341Z,101322.16
2023-05-10T11:36:36.735Z,101326.34
2023-05-10T11:39:06.683Z,101329.94
2023-05-10T11:41:33.520Z,101331.56
2023-05-10T11:44:05.079Z,101331.56
2023-05-10T11:46:31.841Z,101317.41
2023-05-10T11:49:05.709Z,101324.13
2023-05-10T11:51:35.435Z,101320.97
2023-05-10T11:54:01.986Z,101324.69
2023-05-10T11:56:28.504Z,101327.22
2023-05-10T11:58:58.758Z,101333.88
2023-05-10T12:01:29.219Z,101329.16
2023-05-10T12:04:01.391Z,101328.34
2023-05-10T12:06:33.321Z,101330.25
2023-05-10T12:09:06.896Z,101328.81
2023-05-10T12:11:33.499Z,101330.38
2023-05-10T12:14:00.014Z,101324.91
2023-05-10T12:16:30.506Z,101329.88
2023-05-10T12:19:00.850Z,101333.00
2023-05-10T12:21:32.470Z,101335.16
2023-05-10T12:24:07.600Z,101332.69
2023-05-10T12:26:36.275Z,101329.63
2023-05-10T12:29:23.765Z,101335.47
2023-05-10T12:31:56.466Z,101327.72
2023-05-10T12:34:37.278Z,101328.72
2023-05-10T12:37:04.935Z,101333.56
2023-05-10T12:39:44.118Z,101335.34
2023-05-10T12:42:11.555Z,101331.34
2023-05-10T12:44:38.132Z,101329.13
2023-05-10T12:47:04.769Z,101329.28
2023-05-10T12:49:33.749Z,101331.41
2023-05-10T12:52:02.680Z,101332.38
2023-05-10T12:54:29.206Z,101331.63
2023-05-10T12:56:55.917Z,101337.56
2023-05-10T12:59:22.400Z,101345.53
2023-05-10T13:01:48.906Z,101340.78
2023-05-10T13:04:17.844Z,101341.78
2023-05-10T13:06:44.553Z,101344.44
2023-05-10T13:09:11.050Z,101342.84
2023-05-10T13:11:42.489Z,101346.94
2023-05-10T13:14:08.998Z,101341.38
2023-05-10T13:16:37.988Z,101355.44
2023-05-10T13:19:06.971Z,101345.28
2023-05-10T13:21:33.542Z,101348.25
2023-05-10T13:24:01.302Z,101352.13
2023-05-10T13:26:27.741Z,101358.75
2023-05-10T13:28:56.584Z,101361.00
2023-05-10T13:31:23.088Z,101370.59
2023-05-10T13:33:51.820Z,101375.38
2023-05-10T13:36:18.289Z,101371.38
2023-05-10T13:38:44.886Z,101374.78
2023-05-10T13:41:11.558Z,101381.53
2023-05-10T13:43:38.061Z,101382.53
2023-05-10T13:46:04.680Z,101381.66
2023-05-10T13:48:31.145Z,101383.38
2023-05-10T13:51:00.152Z,101384.47
2023-05-10T13:53:26.786Z,101385.56
2023-05-10T13:55:55.741Z,101393.56
2023-05-10T13:58:22.235Z,101392.91
2023-05-10T14:00:53.584Z,101397.03
2023-05-10T14:03:22.408Z,101392.81
2023-05-10T14:05:51.360Z,101402.09
2023-05-10T14:08:20.084Z,101400.84
2023-05-10T14:10:53.167Z,101397.03
2023-05-10T14:13:24.714Z,101407.13
2023-05-10T14:15:51.680Z,101403.00
2023-05-10T14:18:20.524Z,101403.41
2023-05-10T14:20:50.276Z,101398.25
2023-05-10T14:23:20.638Z,101401.63
2023-05-10T14:25:47.098Z,101404.22
2023-05-10T14:28:13.640Z,101403.41
2023-05-10T14:30:44.933Z,101406.81
2023-05-10T14:33:14.289Z,101404.03
2023-05-10T14:35:43.403Z,101407.22
2023-05-10T14:38:12.145Z,101407.41
2023-05-10T14:40:38.646Z,101407.75
2023-05-10T14:43:07.524Z,101407.97
2023-05-10T14:45:39.016Z,101404.78
2023-05-10T14:48:05.882Z,101405.56
2023-05-10T14:50:40.497Z,101403.78
2023-05-10T14:53:07.082Z,101405.75
2023-05-10T14:55:33.817Z,101396.03
2023-05-10T14:58:02.739Z,101404.38
2023-05-10T15:00:30.443Z,101402.19
2023-05-10T15:03:00.558Z,101404.78
2023-05-10T15:05:31.966Z,101404.38
2023-05-10T15:07:59.137Z,101402.59
2023-05-10T15:10:26.255Z,101402.59
2023-05-10T15:12:52.835Z,101402.44
2023-05-10T15:15:22.132Z,101399.47
2023-05-10T15:17:51.539Z,101401.69
2023-05-10T15:20:20.377Z,101402.09
2023-05-10T15:22:49.397Z,101406.94
2023-05-10T15:25:17.201Z,101408.16
2023-05-10T15:27:44.654Z,101401.25
2023-05-10T15:30:11.805Z,101399.94
2023-05-10T15:32:40.500Z,101396.22
2023-05-10T15:35:12.356Z,101396.03
2023-05-10T15:37:39.041Z,101401.84
2023-05-10T15:40:06.229Z,101405.06
2023-05-10T15:42:32.979Z,101397.59
2023-05-10T15:45:01.961Z,101398.63
2023-05-10T15:47:30.559Z,101404.00
2023-05-10T15:50:01.837Z,101406.81
2023-05-10T15:52:36.080Z,101412.19
2023-05-10T15:55:03.539Z,101415.00
2023-05-10T15:57:33.665Z,101413.72
2023-05-10T16:00:01.553Z,101418.91
2023-05-10T16:02:33.426Z,101418.13
2023-05-10T16:05:05.034Z,101425.31
2023-05-10T16:07:31.529Z,101424.91
2023-05-10T16:10:02.053Z,101431.69
2023-05-10T16:12:31.436Z,101434.06
2023-05-10T16:14:58.122Z,101428.91
2023-05-10T16:17:24.870Z,101431.91
2023-05-10T16:19:54.044Z,101428.91
2023-05-10T16:22:22.489Z,101429.34
2023-05-10T16:24:49.128Z,101425.16
2023-05-10T16:27:18.637Z,101430.75
2023-05-10T16:29:47.923Z,101431.53
2023-05-10T16:32:14.541Z,101433.34
2023-05-10T16:34:41.048Z,101428.34
2023-05-10T16:37:07.538Z,101431.13
2023-05-10T16:39:38.832Z,101430.34
2023-05-10T16:42:10.094Z,101435.69
2023-05-10T16:44:36.847Z,101439.28
2023-05-10T16:47:03.562Z,101438.31
2023-05-10T16:49:32.409Z,101441.28
2023-05-10T16:51:59.875Z,101436.31
2023-05-10T16:54:26.404Z,101434.72
2023-05-10T16:56:55.440Z,101439.09
2023-05-10T16:59:24.521Z,101439.09
2023-05-10T17:01:53.160Z,101443.66
2023-05-10T17:04:19.939Z,101444.66
2023-05-10T17:06:48.860Z,101445.88
2023-05-10T17:09:15.840Z,101442.44
2023-05-10T17:11:44.693Z,101449.84
2023-05-10T17:14:11.231Z,101451.22
2023-05-10T17:16:42.595Z,101446.81
2023-05-10T17:19:09.582Z,101453.00
2023-05-10T17:21:36.242Z,101461.41
2023-05-10T17:24:05.012Z,101461.19
2023-05-10T17:26:34.598Z,101461.97
2023-05-10T17:29:03.373Z,101465.38
2023-05-10T17:31:32.826Z,101457.97
2023-05-10T17:34:04.717Z,101466.31
2023-05-10T17:36:32.488Z,101466.69
2023-05-10T17:39:09.431Z,101462.25
2023-05-10T17:41:38.362Z,101467.63
2023-05-10T17:44:04.897Z,101477.53
2023-05-10T17:46:31.388Z,101478.13
2023-05-10T17:49:00.332Z,101478.50
2023-05-10T17:51:27.070Z,101485.41
2023-05-10T17:53:53.671Z,101481.41
2023-05-10T17:56:22.572Z,101478.22
2023-05-10T17:58:54.014Z,101483.75
2023-05-10T18:01:22.854Z,101486.56
2023-05-10T18:03:49.923Z,101489.50
2023-05-10T18:06:21.362Z,101492.28
2023-05-10T18:08:50.162Z,101491.84
2023-05-10T18:11:16.701Z,101494.84
2023-05-10T18:13:43.222Z,101499.78
2023-05-10T18:16:13.397Z,101491.78
2023-05-10T18:18:40.017Z,101497.72
2023-05-10T18:21:06.686Z,101496.84
2023-05-10T18:23:35.742Z,101498.03
2023-05-10T18:26:02.433Z,101495.66
2023-05-10T18:28:28.918Z,101495.66
2023-05-10T18:30:58.225Z,101502.84
2023-05-10T18:33:27.106Z,101493.84
2023-05-10T18:35:53.741Z,101501.41
2023-05-10T18:38:22.893Z,101501.19
2023-05-10T18:40:51.908Z,101498.00
2023-05-10T18:43:28.675Z,101502.16
2023-05-10T18:45:55.223Z,101501.19
2023-05-10T18:48:21.708Z,101500.88
2023-05-10T18:50:48.495Z,101508.41
2023-05-10T18:53:17.324Z,101515.28
2023-05-10T18:55:44.840Z,101511.47
2023-05-10T18:58:11.398Z,101516.84
2023-05-10T19:00:38.143Z,101516.19
2023-05-10T19:03:04.792Z,101521.56
2023-05-10T19:05:31.659Z,101524.53
2023-05-10T19:07:58.298Z,101515.53
2023-05-10T19:10:24.802Z,101521.31
2023-05-10T19:12:53.582Z,101522.75
2023-05-10T19:15:21.677Z,101526.38
2023-05-10T19:17:52.568Z,101528.75
2023-05-10T19:20:24.154Z,101527.53
2023-05-10T19:23:08.280Z,101531.09
2023-05-10T19:25:36.101Z,101536.00
2023-05-10T19:28:05.147Z,101526.66
2023-05-10T19:30:34.229Z,101531.44
2023-05-10T19:33:05.407Z,101536.22
2023-05-10T19:35:34.527Z,101530.34
2023-05-10T19:38:03.433Z,101535.63
2023-05-10T19:40:29.999Z,101540.69
2023-05-10T19:43:00.398Z,101549.63
2023-05-10T19:45:29.293Z,101545.88
2023-05-10T19:47:56.350Z,101549.94
2023-05-10T19:50:22.897Z,101549.16
2023-05-10T19:52:49.513Z,101551.53
2023-05-10T19:55:27.901Z,101553.88
2023-05-10T19:57:56.731Z,101552.81
2023-05-10T20:00:28.107Z,101554.31
2023-05-10T20:02:57.893Z,101555.03
2023-05-10T20:05:26.820Z,101559.34
2023-05-10T20:07:53.377Z,101556.75
2023-05-10T20:10:20.151Z,101564.69
2023-05-10T20:12:52.243Z,101559.25
2023-05-10T20:15:21.206Z,101559.34
2023-05-10T20:17:50.962Z,101564.88
2023-05-10T20:20:18.000Z,101561.66
2023-05-10T20:22:47.615Z,101563.97
2023-05-10T20:25:15.240Z,101557.94
2023-05-10T20:27:44.480Z,101565.22
2023-05-10T20:30:11.908Z,101565.84
2023-05-10T20:32:39.099Z,101568.25
2023-05-10T20:35:08.603Z,101566.47
2023-05-10T20:37:35.375Z,101565.31
2023-05-10T20:40:01.975Z,101564.06
2023-05-10T20:42:31.082Z,101568.59
2023-05-10T20:45:03.332Z,101569.41
2023-05-10T20:47:29.904Z,101570.22
2023-05-10T20:49:56.447Z,101578.56
2023-05-10T20:52:25.308Z,101572.00
2023-05-10T20:54:52.052Z,101575.91
2023-05-10T20:57:21.077Z,101571.47
2023-05-10T20:59:49.717Z,101565.03
2023-05-10T21:02:18.722Z,101580.84
2023-05-10T21:04:45.349Z,101574.47
2023-05-10T21:07:12.225Z,101574.19
2023-05-10T21:09:38.694Z,101574.19
2023-05-10T21:12:05.727Z,101570.63
2023-05-10T21:14:35.223Z,101568.34
2023-05-10T21:17:06.229Z,101563.00
2023-05-10T21:19:32.806Z,101563.97
2023-05-10T21:22:01.933Z,101563.00
2023-05-10T21:24:35.064Z,101566.03
2023-05-10T21:27:04.709Z,101575.53
2023-05-10T21:29:33.473Z,101565.22
2023-05-10T21:32:00.143Z,101570.19
2023-05-10T21:34:29.160Z,101565.31
2023-05-10T21:36:55.716Z,101561.28
2023-05-10T21:39:24.520Z,101558.91
2023-05-10T21:41:51.133Z,101558.91
2023-05-10T21:44:17.554Z,101555.72
2023-05-10T21:46:46.539Z,101559.28
2023-05-10T21:49:15.303Z,101559.88
2023-05-10T21:51:41.903Z,101550.56
2023-05-10T21:54:11.066Z,101564.84
2023-05-10T21:56:37.653Z,101559.28
2023-05-10T21:59:06.876Z,101559.44
2023-05-10T22:01:35.722Z,101563.97
2023-05-10T22:04:04.495Z,101563.50
2023-05-10T22:09:35.049Z,101573.81
2023-05-10T22:12:06.344Z,101576.69
2023-05-10T22:14:32.892Z,101576.50
2023-05-10T22:17:01.702Z,101579.72
2023-05-10T22:19:28.300Z,101578.91
2023-05-10T22:21:54.867Z,101576.69
2023-05-10T22:24:21.515Z,101581.22
2023-05-10T22:26:47.997Z,101575.34
2023-05-10T22:29:14.557Z,101578.41
2023-05-10T22:31:41.401Z,101580.00
2023-05-10T22:34:10.462Z,101571.28
2023-05-10T22:36:37.280Z,101574.84
2023-05-10T22:39:06.363Z,101576.44
2023-05-10T22:41:34.256Z,101583.56
2023-05-10T22:44:01.519Z,101576.63
2023-05-10T22:46:32.267Z,101577.41
2023-05-10T22:49:01.168Z,101577.56
2023-05-10T22:51:28.018Z,101574.97
2023-05-10T22:53:54.503Z,101578.53
2023-05-10T22:56:24.346Z,101579.53
2023-05-10T22:58:51.172Z,101576.94
2023-05-10T23:01:17.705Z,101575.16
2023-05-10T23:03:44.208Z,101575.97
2023-05-10T23:06:10.720Z,101574.19
2023-05-10T23:08:39.718Z,101576.75
2023-05-10T23:11:06.225Z,101574.19
2023-05-10T23:13:32.851Z,101578.41
2023-05-10T23:16:07.837Z,101591.91
2023-05-10T23:18:39.674Z,101581.59
2023-05-10T23:21:06.224Z,101586.56
2023-05-10T23:23:34.153Z,101583.78
2023-05-10T23:26:04.260Z,101593.94
2023-05-10T23:28:33.489Z,101593.94
2023-05-10T23:31:00.018Z,101590.72
2023-05-10T23:33:29.049Z,101597.06
2023-05-10T23:35:57.811Z,101597.84
2023-05-10T23:38:29.188Z,101593.03
2023-05-10T23:40:55.705Z,101590.66
2023-05-10T23:43:22.289Z,101593.75
2023-05-10T23:45:55.993Z,101591.97
2023-05-10T23:48:25.442Z,101590.03
2023-05-10T23:50:54.360Z,101590.22
2023-05-10T23:53:20.980Z,101596.50
2023-05-10T23:55:52.368Z,101587.34
2023-05-10T23:58:23.607Z,101589.47
